Time;durP1;ratioP1;P1;durP2;ratioP2;P2;SDS_P1;SDS_P2;PMS_P1;PMS_P2;Temp;Humidity;BMP_temperature;BMP_pressure;BME280_temperature;BME280_humidity;BME280_pressure;Samples;Min_cycle;Max_cycle;Signal;HPM_P1;HPM_P2
2023/11/05 00:02:55;;;;;;;66.70;10.13;;;;;;;23.92;100.00;100820.06;21192135;27;20077;-77
2023/11/05 00:13:20;;;;;;;69.63;9.32;;;;;;;23.82;100.00;100819.53;21191216;27;20766;-76
2023/11/05 00:23:42;;;;;;;70.93;10.18;;;;;;;23.80;100.00;100832.19;21180282;27;20043;-76
2023/11/05 00:34:06;;;;;;;60.05;10.05;;;;;;;23.74;100.00;100824.34;21184665;27;20527;-76
2023/11/05 00:44:29;;;;;;;67.75;10.45;;;;;;;23.68;100.00;100812.91;21188711;27;20574;-77
2023/11/05 00:54:53;;;;;;;65.47;8.82;;;;;;;23.79;100.00;100826.84;21189760;27;20043;-77
2023/11/05 01:05:15;;;;;;;41.00;6.50;;;;;;;23.73;100.00;100817.19;21203714;27;20134;-76
2023/11/05 01:15:40;;;;;;;55.70;8.38;;;;;;;23.56;100.00;100821.47;21203857;27;20129;-79
2023/11/05 01:26:02;;;;;;;51.42;8.00;;;;;;;23.43;100.00;100850.63;21179000;28;20134;-76
2023/11/05 01:36:26;;;;;;;42.15;6.70;;;;;;;23.40;100.00;100835.44;21151079;28;20040;-76
2023/11/05 01:46:49;;;;;;;45.00;7.20;;;;;;;23.25;100.00;100841.38;21185165;27;20039;-76
2023/11/05 01:57:13;;;;;;;50.80;7.85;;;;;;;23.09;100.00;100850.06;21183066;28;20410;-76
2023/11/05 02:07:36;;;;;;;63.28;8.25;;;;;;;23.10;100.00;100866.16;21201780;27;20050;-76
2023/11/05 02:18:01;;;;;;;41.20;6.72;;;;;;;23.15;100.00;100869.56;21220856;27;20108;-77
2023/11/05 02:28:26;;;;;;;40.47;6.55;;;;;;;23.20;100.00;100881.06;21201111;27;20084;-77
2023/11/05 02:38:49;;;;;;;38.38;7.38;;;;;;;23.07;100.00;100886.94;21188739;27;20082;-77
2023/11/05 02:49:13;;;;;;;40.70;8.18;;;;;;;23.03;100.00;100900.50;21215864;27;20103;-78
2023/11/05 02:59:35;;;;;;;43.05;7.55;;;;;;;22.98;100.00;100917.72;21201058;27;20050;-77
2023/11/05 03:10:00;;;;;;;35.63;6.50;;;;;;;23.01;100.00;100905.06;21196637;27;20096;-77
2023/11/05 03:20:23;;;;;;;49.33;6.28;;;;;;;23.03;100.00;100903.19;21208277;27;20054;-77
2023/11/05 03:30:47;;;;;;;41.42;6.57;;;;;;;22.99;100.00;100908.72;21216145;27;20045;-76
2023/11/05 03:41:10;;;;;;;44.67;6.75;;;;;;;23.05;100.00;100917.47;21188185;27;20049;-77
2023/11/05 03:51:34;;;;;;;47.67;6.63;;;;;;;23.02;100.00;100914.91;21156090;27;20058;-77
2023/11/05 04:01:56;;;;;;;40.55;7.60;;;;;;;23.05;100.00;100944.41;21210444;27;20049;-77
2023/11/05 04:12:22;;;;;;;37.67;6.55;;;;;;;22.99;100.00;100952.69;21200754;27;20121;-77
2023/11/05 04:22:46;;;;;;;34.88;5.95;;;;;;;22.92;100.00;100953.81;21189609;27;20070;-77
2023/11/05 04:33:10;;;;;;;41.67;6.35;;;;;;;22.91;100.00;100978.97;21200331;27;20050;-76
2023/11/05 04:43:32;;;;;;;35.10;6.03;;;;;;;22.96;100.00;100985.13;21194478;27;20039;-76
2023/11/05 04:53:57;;;;;;;34.63;5.68;;;;;;;23.01;100.00;101007.41;21118304;28;20051;-76
2023/11/05 05:04:19;;;;;;;34.72;5.50;;;;;;;22.91;100.00;101005.91;21118498;28;20487;-76
2023/11/05 05:14:44;;;;;;;28.55;5.25;;;;;;;22.90;100.00;101014.06;21083805;27;20065;-76
2023/11/05 05:25:08;;;;;;;37.13;6.38;;;;;;;22.96;100.00;101021.94;21127888;28;20101;-76
2023/11/05 05:35:33;;;;;;;38.53;5.93;;;;;;;23.12;100.00;101031.28;21124895;28;20051;-76
2023/11/05 05:45:55;;;;;;;33.75;4.68;;;;;;;23.34;100.00;101044.97;21128965;27;20057;-77
2023/11/05 05:56:19;;;;;;;34.85;5.45;;;;;;;23.53;100.00;101050.66;21170619;27;20067;-77
2023/11/05 06:06:42;;;;;;;31.75;5.20;;;;;;;23.63;100.00;101039.50;21177472;27;20051;-77
2023/11/05 06:17:06;;;;;;;34.88;4.63;;;;;;;23.74;100.00;101033.75;21157081;27;20495;-77
2023/11/05 06:27:28;;;;;;;28.58;4.50;;;;;;;23.88;100.00;101027.91;21170935;27;20080;-76
2023/11/05 06:37:52;;;;;;;35.63;4.35;;;;;;;24.56;100.00;101036.19;21179090;27;20686;-77
2023/11/05 06:48:15;;;;;;;22.80;3.35;;;;;;;25.37;100.00;101052.84;21060935;27;20051;-76
2023/11/05 06:58:39;;;;;;;25.83;2.78;;;;;;;25.94;100.00;101041.41;21055248;28;20128;-76
2023/11/05 07:09:02;;;;;;;28.13;4.20;;;;;;;25.81;100.00;101042.91;21053483;28;20265;-76
2023/11/05 07:19:27;;;;;;;37.90;5.00;;;;;;;26.33;100.00;101046.03;21074357;27;20069;-76
2023/11/05 07:29:49;;;;;;;59.47;7.25;;;;;;;26.66;100.00;101038.19;21066357;28;20400;-77
2023/11/05 07:40:14;;;;;;;106.95;14.50;;;;;;;27.15;100.00;101021.41;21106271;28;20491;-77
2023/11/05 07:50:37;;;;;;;98.13;10.45;;;;;;;27.35;100.00;101028.56;21149760;27;20063;-78
2023/11/05 08:01:01;;;;;;;84.30;11.10;;;;;;;27.54;100.00;101028.56;21157313;27;20042;-78
2023/11/05 08:11:23;;;;;;;97.22;11.52;;;;;;;27.76;100.00;101029.22;21168875;27;20051;-76
2023/11/05 08:21:48;;;;;;;118.20;14.77;;;;;;;27.93;92.91;101036.50;21229481;27;20051;-78
2023/11/05 08:32:10;;;;;;;97.05;12.60;;;;;;;27.81;96.59;101048.88;21156642;27;20132;-79
2023/11/05 08:42:34;;;;;;;100.82;10.50;;;;;;;28.09;96.22;101053.75;21161885;27;20078;-77
2023/11/05 08:52:57;;;;;;;24.48;3.20;;;;;;;28.59;99.72;101052.91;21176634;27;20047;-77
2023/11/05 09:03:21;;;;;;;20.42;2.30;;;;;;;28.65;100.00;101038.97;21208483;27;20047;-76
2023/11/05 09:13:44;;;;;;;29.15;4.60;;;;;;;28.92;99.50;101022.06;21228700;27;20054;-76
2023/11/05 09:24:09;;;;;;;20.60;2.70;;;;;;;29.27;83.62;101019.16;21241505;27;20062;-76
2023/11/05 09:34:32;;;;;;;23.27;2.90;;;;;;;29.40;82.40;100997.59;21269694;27;20070;-77
2023/11/05 09:44:56;;;;;;;96.95;11.07;;;;;;;29.73;74.83;100981.09;21176654;27;20534;-77
2023/11/05 09:55:19;;;;;;;79.28;9.88;;;;;;;29.35;52.19;100973.34;21210177;27;20048;-78
2023/11/05 10:05:44;;;;;;;88.82;11.38;;;;;;;29.19;52.78;100957.03;21229111;27;20100;-77
2023/11/05 10:16:09;;;;;;;77.40;10.20;;;;;;;29.10;51.08;100952.13;21190255;27;20096;-77
2023/11/05 10:26:34;;;;;;;77.80;7.93;;;;;;;28.95;46.97;100941.28;21259103;27;20039;-77
2023/11/05 10:36:56;;;;;;;35.60;4.47;;;;;;;28.62;69.02;100946.78;21253624;27;20141;-79
2023/11/05 10:47:22;;;;;;;31.63;3.72;;;;;;;28.49;81.46;100932.97;21242427;27;20055;-78
2023/11/05 10:57:47;;;;;;;32.43;4.53;;;;;;;28.39;87.77;100937.16;21213055;27;20043;-78
2023/11/05 11:08:12;;;;;;;27.60;3.67;;;;;;;28.39;89.63;100950.75;21212795;27;20683;-77
2023/11/05 11:18:37;;;;;;;28.63;3.30;;;;;;;28.46;92.00;100941.31;21179133;27;20054;-78
2023/11/05 11:29:04;;;;;;;23.50;3.00;;;;;;;28.26;93.20;100938.81;21256458;27;20099;-79
2023/11/05 11:39:27;;;;;;;40.58;5.13;;;;;;;28.03;95.25;100923.72;21256464;27;20043;-78
2023/11/05 11:49:52;;;;;;;25.77;3.90;;;;;;;27.90;98.00;100928.94;21196403;27;20444;-77
2023/11/05 12:00:17;;;;;;;23.45;4.10;;;;;;;27.64;100.00;100934.88;21200725;27;20043;-79
2023/11/05 12:10:44;;;;;;;30.30;4.03;;;;;;;27.53;100.00;100939.97;21182097;27;20043;-76
2023/11/05 12:21:08;;;;;;;20.63;3.07;;;;;;;27.43;100.00;100944.09;21273826;27;20054;-76
2023/11/05 12:31:33;;;;;;;31.10;4.50;;;;;;;27.35;100.00;100941.78;21224173;27;20298;-77
2023/11/05 12:41:58;;;;;;;27.30;3.83;;;;;;;27.35;98.82;100923.69;21214190;27;20043;-77
2023/11/05 12:52:22;;;;;;;25.40;3.17;;;;;;;27.11;100.00;100951.16;21205530;27;20051;-76
2023/11/05 13:02:44;;;;;;;23.40;2.90;;;;;;;26.93;100.00;100956.53;21185730;27;20051;-77
2023/11/05 13:13:09;;;;;;;31.92;3.70;;;;;;;26.81;100.00;100948.06;21196783;27;20092;-77
2023/11/05 13:23:32;;;;;;;22.98;3.97;;;;;;;26.57;100.00;100956.44;21156300;28;20084;-75
2023/11/05 13:33:58;;;;;;;26.55;3.80;;;;;;;26.46;100.00;100971.41;21190618;27;20035;-76
2023/11/05 13:44:21;;;;;;;22.65;3.58;;;;;;;26.25;100.00;100964.31;21184111;27;20051;-75
2023/11/05 13:54:45;;;;;;;32.90;3.75;;;;;;;26.17;100.00;100973.63;21204509;27;20050;-78
2023/11/05 14:05:08;;;;;;;29.45;4.20;;;;;;;26.08;100.00;100982.16;21187372;27;20058;-77
2023/11/05 14:15:32;;;;;;;32.58;4.25;;;;;;;25.97;100.00;100979.06;21221154;27;20073;-76
2023/11/05 14:25:55;;;;;;;42.20;4.85;;;;;;;25.79;100.00;100979.88;21225873;27;20075;-77
2023/11/05 14:36:19;;;;;;;33.08;3.78;;;;;;;25.55;100.00;100984.47;21202795;27;20128;-77
2023/11/05 14:46:41;;;;;;;30.75;4.05;;;;;;;25.45;100.00;100980.41;21208517;27;20079;-76
2023/11/05 14:57:06;;;;;;;33.38;4.22;;;;;;;25.19;100.00;100986.91;21155495;27;20049;-76
2023/11/05 15:07:29;;;;;;;27.88;3.30;;;;;;;24.90;100.00;100989.91;21222354;27;20059;-77
2023/11/05 15:17:53;;;;;;;23.73;2.83;;;;;;;24.78;100.00;100993.94;21221656;27;20092;-77
2023/11/05 15:28:16;;;;;;;25.92;3.17;;;;;;;24.64;100.00;100996.28;21206297;27;20234;-76
2023/11/05 15:38:40;;;;;;;24.92;3.70;;;;;;;24.65;100.00;101005.28;21219498;27;20142;-77
2023/11/05 15:49:03;;;;;;;25.35;3.67;;;;;;;24.59;100.00;101025.31;21204331;27;20108;-76
2023/11/05 15:59:27;;;;;;;30.67;4.55;;;;;;;24.60;100.00;101022.53;21217210;27;20141;-77
2023/11/05 16:09:50;;;;;;;32.47;3.75;;;;;;;24.44;100.00;101037.53;21212686;27;20041;-76
2023/11/05 16:20:15;;;;;;;31.80;4.13;;;;;;;24.41;100.00;101051.16;21181285;27;20065;-75
2023/11/05 16:30:37;;;;;;;27.85;5.05;;;;;;;24.06;100.00;101048.81;21198397;27;20038;-75
2023/11/05 16:41:01;;;;;;;25.30;4.47;;;;;;;23.74;100.00;101053.53;21194042;27;20038;-75
2023/11/05 16:51:28;;;;;;;32.10;4.23;;;;;;;23.63;100.00;101074.56;21185504;27;20055;-75
2023/11/05 17:01:52;;;;;;;22.48;4.53;;;;;;;23.53;100.00;101083.88;21189721;27;20045;-75
2023/11/05 17:12:15;;;;;;;20.10;3.08;;;;;;;23.30;100.00;101089.97;21210797;27;20179;-76
2023/11/05 17:22:39;;;;;;;26.95;4.93;;;;;;;23.36;100.00;101097.88;21198381;27;20069;-76
2023/11/05 17:33:02;;;;;;;23.27;4.38;;;;;;;23.31;100.00;101104.31;21211384;28;20047;-76
2023/11/05 17:43:26;;;;;;;29.95;4.80;;;;;;;23.44;100.00;101105.69;21182449;27;20130;-76
2023/11/05 17:53:48;;;;;;;24.58;4.10;;;;;;;23.44;100.00;101103.88;21209090;27;20038;-77
2023/11/05 18:04:12;;;;;;;26.52;4.63;;;;;;;23.49;100.00;101116.41;21184006;27;20040;-76
2023/11/05 18:14:35;;;;;;;34.38;4.97;;;;;;;23.50;100.00;101113.63;21155608;27;20046;-76
2023/11/05 18:25:00;;;;;;;19.40;3.35;;;;;;;23.43;100.00;101130.91;21207808;27;20047;-77
2023/11/05 18:35:23;;;;;;;32.72;4.30;;;;;;;23.25;100.00;101126.06;21207582;27;20052;-76
2023/11/05 18:45:48;;;;;;;30.13;4.85;;;;;;;23.21;100.00;101136.06;21208399;27;20047;-77
2023/11/05 18:56:10;;;;;;;30.35;8.00;;;;;;;23.01;100.00;101131.28;21227097;27;20055;-77
2023/11/05 19:06:37;;;;;;;28.10;7.18;;;;;;;22.89;100.00;101138.84;21227809;27;20031;-77
2023/11/05 19:16:59;;;;;;;31.50;6.40;;;;;;;22.70;100.00;101141.16;21154323;27;20466;-77
2023/11/05 19:27:23;;;;;;;37.28;6.80;;;;;;;22.44;100.00;101147.25;21223392;27;20443;-77
2023/11/05 19:37:46;;;;;;;26.20;5.97;;;;;;;22.33;100.00;101161.91;21223855;27;20134;-77
2023/11/05 19:48:10;;;;;;;29.75;7.75;;;;;;;22.10;100.00;101162.50;21223489;27;20096;-75
2023/11/05 19:58:34;;;;;;;33.20;5.43;;;;;;;21.96;100.00;101170.91;21222248;27;20046;-79
2023/11/05 20:08:59;;;;;;;31.13;5.18;;;;;;;21.79;100.00;101160.53;21221568;27;20055;-74
2023/11/05 20:19:22;;;;;;;26.40;4.68;;;;;;;21.70;100.00;101151.81;21210714;27;20050;-76
2023/11/05 20:29:46;;;;;;;29.27;4.88;;;;;;;21.52;100.00;101154.94;21198831;27;20043;-76
2023/11/05 20:40:10;;;;;;;26.00;4.50;;;;;;;21.42;100.00;101173.06;21206732;27;20547;-77
2023/11/05 20:50:34;;;;;;;28.30;4.32;;;;;;;21.34;100.00;101164.28;21176568;27;20051;-76
2023/11/05 21:00:57;;;;;;;26.20;5.00;;;;;;;21.19;100.00;101168.22;21206803;27;20039;-77
2023/11/05 21:11:22;;;;;;;28.50;4.90;;;;;;;21.15;100.00;101181.69;21167505;27;20043;-76
2023/11/05 21:21:44;;;;;;;23.98;4.18;;;;;;;21.04;100.00;101177.44;21188945;27;20053;-76
2023/11/05 21:32:09;;;;;;;35.50;4.18;;;;;;;20.95;100.00;101166.88;21186136;28;20546;-76
2023/11/05 21:42:32;;;;;;;36.63;5.35;;;;;;;20.85;100.00;101177.84;21197005;28;20047;-76
2023/11/05 21:52:56;;;;;;;27.75;3.67;;;;;;;20.79;100.00;101165.44;21208100;28;20406;-76
2023/11/05 22:03:21;;;;;;;32.42;4.65;;;;;;;20.77;100.00;101169.06;21195417;28;20039;-77
2023/11/05 22:13:45;;;;;;;26.95;3.75;;;;;;;20.86;100.00;101176.94;21219741;28;20055;-76
2023/11/05 22:24:09;;;;;;;28.13;4.07;;;;;;;21.00;100.00;101175.72;21200839;28;20063;-76
2023/11/05 22:34:33;;;;;;;32.80;3.88;;;;;;;20.99;100.00;101181.13;21209110;27;20055;-76
2023/11/05 22:44:56;;;;;;;34.40;4.30;;;;;;;20.81;100.00;101177.00;21223236;27;20088;-76
2023/11/05 22:55:21;;;;;;;25.85;3.38;;;;;;;20.66;100.00;101172.84;21210155;27;20076;-77
2023/11/05 23:05:43;;;;;;;21.98;3.13;;;;;;;20.57;100.00;101181.06;21194111;27;20307;-75
2023/11/05 23:16:09;;;;;;;24.70;3.20;;;;;;;20.43;100.00;101187.56;21207078;27;20054;-77
2023/11/05 23:26:32;;;;;;;22.67;3.42;;;;;;;20.32;100.00;101193.13;21206542;27;20059;-76
2023/11/05 23:36:58;;;;;;;29.52;3.60;;;;;;;20.30;100.00;101192.25;21217008;27;20091;-76
2023/11/05 23:47:20;;;;;;;25.70;3.95;;;;;;;20.15;100.00;101190.69;21211937;27;20051;-76
2023/11/05 23:57:44;;;;;;;21.17;3.00;;;;;;;20.09;100.00;101197.97;21215654;27;20047;-76
